createdAt,value
2022-11-15T00:01:28.604Z,84
2022-11-15T00:04:53.881Z,84
2022-11-15T00:08:19.198Z,85
2022-11-15T00:11:44.397Z,85
2022-11-15T00:15:09.677Z,84
2022-11-15T00:18:34.899Z,84
2022-11-15T00:22:00.171Z,84
2022-11-15T00:25:25.454Z,84
2022-11-15T00:28:50.733Z,84
2022-11-15T00:32:15.958Z,84
2022-11-15T00:35:41.205Z,84
2022-11-15T00:39:06.455Z,84
2022-11-15T00:42:31.726Z,84
2022-11-15T00:45:57.038Z,84
2022-11-15T00:49:22.247Z,84
2022-11-15T00:52:47.499Z,84
2022-11-15T00:56:12.750Z,84
2022-11-15T00:59:38.012Z,85
2022-11-15T01:03:03.303Z,85
2022-11-15T01:06:28.520Z,85
2022-11-15T01:09:53.814Z,84
2022-11-15T01:13:19.070Z,84
2022-11-15T01:16:44.291Z,84
2022-11-15T01:20:09.558Z,84
2022-11-15T01:23:35.067Z,84
2022-11-15T01:27:00.051Z,84
2022-11-15T01:30:25.276Z,84
2022-11-15T01:33:50.524Z,84
2022-11-15T01:37:15.813Z,84
2022-11-15T01:40:41.039Z,84
2022-11-15T01:44:06.311Z,84
2022-11-15T01:47:31.565Z,84
2022-11-15T01:50:56.801Z,83
2022-11-15T01:54:22.089Z,83
2022-11-15T01:57:47.325Z,83
2022-11-15T02:01:12.681Z,83
2022-11-15T02:04:37.815Z,82
2022-11-15T02:08:03.090Z,82
2022-11-15T02:11:28.358Z,82
2022-11-15T02:14:53.565Z,82
2022-11-15T02:18:18.813Z,82
2022-11-15T02:21:44.076Z,82
2022-11-15T02:25:09.342Z,81
2022-11-15T02:28:34.640Z,82
2022-11-15T02:31:59.899Z,82
2022-11-15T02:35:25.135Z,81
2022-11-15T02:38:50.383Z,81
2022-11-15T02:42:15.633Z,81
2022-11-15T02:45:40.913Z,81
2022-11-15T02:49:06.162Z,80
2022-11-15T02:52:31.405Z,80
2022-11-15T02:55:56.689Z,80
2022-11-15T02:59:21.968Z,81
2022-11-15T03:02:47.254Z,80
2022-11-15T03:06:12.488Z,80
2022-11-15T03:09:37.731Z,81
2022-11-15T03:13:02.981Z,82
2022-11-15T03:16:28.220Z,81
2022-11-15T03:19:53.506Z,81
2022-11-15T03:23:18.709Z,81
2022-11-15T03:26:43.959Z,81
2022-11-15T03:30:09.191Z,80
2022-11-15T03:33:34.550Z,81
2022-11-15T03:36:59.756Z,81
2022-11-15T03:40:24.964Z,82
2022-11-15T03:43:50.232Z,82
2022-11-15T03:47:15.512Z,82
2022-11-15T03:50:40.779Z,82
2022-11-15T03:54:06.069Z,83
2022-11-15T03:57:31.291Z,84
2022-11-15T04:00:56.570Z,83
2022-11-15T04:04:21.816Z,84
2022-11-15T04:07:47.022Z,83
2022-11-15T04:11:12.306Z,83
2022-11-15T04:14:37.547Z,83
2022-11-15T04:18:02.783Z,83
2022-11-15T04:21:28.052Z,82
2022-11-15T04:24:53.303Z,83
2022-11-15T04:28:18.578Z,84
2022-11-15T04:31:43.796Z,83
2022-11-15T04:35:09.050Z,83
2022-11-15T04:38:34.269Z,83
2022-11-15T04:41:59.516Z,82
2022-11-15T04:45:24.772Z,82
2022-11-15T04:48:53.058Z,81
2022-11-15T04:52:15.666Z,81
2022-11-15T04:55:40.920Z,81
2022-11-15T04:59:06.300Z,80
2022-11-15T05:02:31.588Z,79
2022-11-15T05:05:57.001Z,79
2022-11-15T05:09:22.410Z,81
2022-11-15T05:12:47.739Z,81
2022-11-15T05:16:12.997Z,82
2022-11-15T05:19:38.272Z,83
2022-11-15T05:23:03.485Z,81
2022-11-15T05:26:28.763Z,81
2022-11-15T05:29:54.023Z,81
2022-11-15T05:33:19.309Z,81
2022-11-15T05:36:44.560Z,81
2022-11-15T05:40:09.784Z,81
2022-11-15T05:43:35.045Z,81
2022-11-15T05:47:00.323Z,80
2022-11-15T05:50:25.602Z,80
2022-11-15T05:53:50.869Z,79
2022-11-15T05:57:16.124Z,79
2022-11-15T06:00:41.396Z,79
2022-11-15T06:04:06.667Z,78
2022-11-15T06:07:31.952Z,78
2022-11-15T06:10:57.178Z,78
2022-11-15T06:14:22.435Z,77
2022-11-15T06:17:47.670Z,77
2022-11-15T06:21:12.893Z,76
2022-11-15T06:24:38.157Z,77
2022-11-15T06:28:03.398Z,76
2022-11-15T06:31:28.654Z,76
2022-11-15T06:34:53.896Z,76
2022-11-15T06:38:19.146Z,76
2022-11-15T06:41:44.442Z,76
2022-11-15T06:45:12.694Z,76
2022-11-15T06:48:37.922Z,75
2022-11-15T06:52:04.509Z,75
2022-11-15T06:55:32.882Z,75
2022-11-15T06:59:01.133Z,74
2022-11-15T07:02:27.919Z,74
2022-11-15T07:05:56.533Z,74
2022-11-15T07:09:22.076Z,74
2022-11-15T07:12:47.330Z,74
2022-11-15T07:16:12.563Z,73
2022-11-15T07:19:37.835Z,73
2022-11-15T07:23:03.079Z,73
2022-11-15T07:26:28.348Z,72
2022-11-15T07:29:53.634Z,72
2022-11-15T07:33:18.860Z,72
2022-11-15T07:36:44.162Z,72
2022-11-15T07:40:09.386Z,72
2022-11-15T07:43:34.839Z,72
2022-11-15T07:46:59.966Z,71
2022-11-15T07:50:25.237Z,71
2022-11-15T07:53:50.531Z,70
2022-11-15T07:57:15.764Z,71
2022-11-15T08:00:41.022Z,71
2022-11-15T08:04:06.299Z,70
2022-11-15T08:07:31.603Z,69
2022-11-15T08:10:56.842Z,70
2022-11-15T08:14:22.056Z,69
2022-11-15T08:17:47.283Z,68
2022-11-15T08:21:18.107Z,68
2022-11-15T08:24:38.489Z,69
2022-11-15T08:28:05.099Z,69
2022-11-15T08:31:30.350Z,69
2022-11-15T08:34:55.628Z,69
2022-11-15T08:38:20.876Z,69
2022-11-15T08:41:46.120Z,69
2022-11-15T08:45:11.382Z,69
2022-11-15T08:48:36.657Z,68
2022-11-15T08:52:01.939Z,68
2022-11-15T08:55:27.172Z,68
2022-11-15T08:58:52.430Z,68
2022-11-15T09:02:17.776Z,68
2022-11-15T09:05:43.028Z,68
2022-11-15T09:09:08.296Z,69
2022-11-15T09:12:33.545Z,68
2022-11-15T09:15:58.800Z,68
2022-11-15T09:19:24.097Z,69
2022-11-15T09:22:49.315Z,68
2022-11-15T09:26:14.576Z,67
2022-11-15T09:29:39.904Z,67
2022-11-15T09:33:05.146Z,67
2022-11-15T09:36:30.410Z,66
2022-11-15T09:39:55.670Z,65
2022-11-15T09:43:20.905Z,65
2022-11-15T09:46:46.181Z,64
2022-11-15T09:50:11.446Z,64
2022-11-15T09:54:13.966Z,65
2022-11-15T09:57:01.957Z,65
2022-11-15T10:03:52.494Z,64
2022-11-15T10:07:17.775Z,64
2022-11-15T10:10:43.016Z,64
2022-11-15T10:14:08.252Z,65
2022-11-15T10:17:33.526Z,64
2022-11-15T10:20:58.789Z,64
2022-11-15T10:24:24.033Z,63
2022-11-15T10:27:49.299Z,64
2022-11-15T10:31:15.529Z,64
2022-11-15T10:34:39.872Z,65
2022-11-15T10:38:05.119Z,63
2022-11-15T10:41:30.390Z,65
2022-11-15T10:44:55.673Z,63
2022-11-15T10:48:20.875Z,63
2022-11-15T10:51:46.129Z,62
2022-11-15T10:55:11.401Z,63
2022-11-15T10:58:36.603Z,61
2022-11-15T11:02:01.871Z,62
2022-11-15T11:05:27.089Z,61
2022-11-15T11:08:52.381Z,62
2022-11-15T11:12:17.609Z,63
2022-11-15T11:15:42.868Z,61
2022-11-15T11:19:08.140Z,62
2022-11-15T11:22:33.405Z,62
2022-11-15T11:25:58.669Z,62
2022-11-15T11:29:23.913Z,62
2022-11-15T11:32:52.596Z,64
2022-11-15T11:36:14.472Z,62
2022-11-15T11:39:39.686Z,62
2022-11-15T11:43:04.932Z,61
2022-11-15T11:46:30.194Z,61
2022-11-15T11:49:55.426Z,62
2022-11-15T11:53:20.729Z,61
2022-11-15T11:56:45.961Z,62
2022-11-15T12:00:11.215Z,60
2022-11-15T12:03:36.483Z,63
2022-11-15T12:07:01.795Z,61
2022-11-15T12:10:27.016Z,61
2022-11-15T12:13:52.290Z,60
2022-11-15T12:17:17.538Z,60
2022-11-15T12:20:42.768Z,59
2022-11-15T12:24:08.055Z,59
2022-11-15T12:27:33.329Z,59
2022-11-15T12:30:58.622Z,58
2022-11-15T12:34:23.899Z,59
2022-11-15T12:37:49.185Z,58
2022-11-15T12:41:14.458Z,58
2022-11-15T12:44:39.742Z,58
2022-11-15T12:48:05.023Z,58
2022-11-15T12:51:30.291Z,59
2022-11-15T12:54:55.591Z,59
2022-11-15T12:58:20.923Z,60
2022-11-15T13:01:46.358Z,59
2022-11-15T13:05:11.532Z,60
2022-11-15T13:08:36.813Z,60
2022-11-15T13:12:02.085Z,61
2022-11-15T13:15:27.385Z,63
2022-11-15T13:18:52.653Z,61
2022-11-15T13:22:17.908Z,61
2022-11-15T13:25:43.252Z,62
2022-11-15T13:29:08.486Z,62
2022-11-15T13:32:33.758Z,63
2022-11-15T13:35:59.005Z,63
2022-11-15T13:39:24.237Z,64
2022-11-15T13:42:49.479Z,64
2022-11-15T13:46:14.699Z,65
2022-11-15T13:49:39.944Z,64
2022-11-15T13:53:05.207Z,65
2022-11-15T13:56:30.423Z,66
2022-11-15T13:59:55.677Z,66
2022-11-15T14:03:20.931Z,67
2022-11-15T14:06:46.198Z,67
2022-11-15T14:10:11.424Z,68
2022-11-15T14:13:36.639Z,68
2022-11-15T14:17:01.870Z,71
2022-11-15T14:20:27.099Z,68
2022-11-15T14:23:52.335Z,68
2022-11-15T14:27:17.590Z,68
2022-11-15T15:05:34.460Z,72
2022-11-15T15:08:59.738Z,73
2022-11-15T15:12:25.009Z,73
2022-11-15T15:15:50.283Z,74
2022-11-15T15:19:15.571Z,74
2022-11-15T15:22:40.867Z,75
2022-11-15T15:26:06.117Z,76
2022-11-15T15:29:31.421Z,77
2022-11-15T15:32:56.701Z,77
2022-11-15T15:36:21.984Z,78
2022-11-15T15:39:47.285Z,78
2022-11-15T15:43:12.563Z,78
2022-11-15T15:46:37.847Z,78
2022-11-15T15:50:03.126Z,78
2022-11-15T15:53:28.414Z,78
2022-11-15T15:56:56.254Z,78
2022-11-15T16:00:18.975Z,78
2022-11-15T16:03:44.261Z,77
2022-11-15T16:07:09.571Z,78
2022-11-15T16:10:34.853Z,78
2022-11-15T16:14:00.157Z,78
2022-11-15T16:17:27.130Z,78
2022-11-15T16:20:50.739Z,78
2022-11-15T16:24:15.997Z,78
2022-11-15T16:27:41.256Z,78
2022-11-15T16:31:06.518Z,78
2022-11-15T16:34:34.938Z,77
2022-11-15T16:37:57.011Z,77
2022-11-15T16:41:22.263Z,78
2022-11-15T16:44:47.651Z,78
2022-11-15T16:48:12.920Z,77
2022-11-15T16:51:38.110Z,78
2022-11-15T16:55:03.350Z,79
2022-11-15T16:58:28.581Z,79
2022-11-15T17:01:53.860Z,80
2022-11-15T17:05:20.318Z,79
2022-11-15T17:08:44.367Z,79
2022-11-15T17:12:09.633Z,80
2022-11-15T17:15:34.888Z,80
2022-11-15T17:19:00.129Z,80
2022-11-15T17:22:25.417Z,80
2022-11-15T17:25:50.633Z,80
2022-11-15T17:29:15.861Z,80
2022-11-15T17:32:41.159Z,80
2022-11-15T17:36:06.524Z,80
2022-11-15T17:39:31.905Z,79
2022-11-15T17:42:57.205Z,79
2022-11-15T17:46:22.523Z,79
2022-11-15T17:49:47.839Z,78
2022-11-15T17:53:13.163Z,77
2022-11-15T17:56:38.525Z,77
2022-11-15T18:00:03.839Z,77
2022-11-15T18:03:29.300Z,77
2022-11-15T18:06:54.564Z,78
2022-11-15T18:10:19.805Z,78
2022-11-15T18:13:49.572Z,78
2022-11-15T18:17:10.443Z,79
2022-11-15T18:20:35.997Z,79
2022-11-15T18:24:01.323Z,79
2022-11-15T18:27:26.640Z,79
2022-11-15T18:30:52.073Z,79
2022-11-15T18:34:17.356Z,79
2022-11-15T18:37:42.710Z,79
2022-11-15T18:41:08.062Z,79
2022-11-15T18:44:33.418Z,80
2022-11-15T18:47:58.729Z,79
2022-11-15T18:51:24.027Z,79
2022-11-15T18:54:49.379Z,79
2022-11-15T18:58:14.704Z,80
2022-11-15T19:01:40.073Z,81
2022-11-15T19:05:05.503Z,82
2022-11-15T19:08:35.173Z,81
2022-11-15T19:11:56.137Z,81
2022-11-15T19:15:22.227Z,80
2022-11-15T19:18:47.553Z,80
2022-11-15T19:22:12.948Z,80
2022-11-15T19:25:38.270Z,79
2022-11-15T19:29:03.578Z,79
2022-11-15T19:32:28.911Z,79
2022-11-15T19:35:54.208Z,79
2022-11-15T19:39:19.554Z,78
2022-11-15T19:42:44.855Z,78
2022-11-15T19:46:10.229Z,79
2022-11-15T19:49:35.532Z,79
2022-11-15T19:53:00.829Z,79
2022-11-15T19:56:26.215Z,80
2022-11-15T19:59:51.524Z,80
2022-11-15T20:03:16.821Z,80
2022-11-15T20:06:42.588Z,80
2022-11-15T20:10:07.901Z,80
2022-11-15T20:13:33.289Z,80
2022-11-15T20:16:58.588Z,81
2022-11-15T20:20:23.979Z,81
2022-11-15T20:23:49.281Z,81
2022-11-15T20:27:14.614Z,81
2022-11-15T20:30:39.980Z,81
2022-11-15T20:34:05.266Z,80
2022-11-15T20:37:30.610Z,80
2022-11-15T20:40:59.948Z,81
2022-11-15T20:44:21.245Z,80
2022-11-15T20:47:46.573Z,80
2022-11-15T20:51:11.903Z,80
2022-11-15T20:54:38.064Z,80
2022-11-15T20:58:03.576Z,80
2022-11-15T21:01:28.854Z,80
2022-11-15T21:04:54.070Z,79
2022-11-15T21:08:19.270Z,80
2022-11-15T21:11:44.511Z,80
2022-11-15T21:15:09.742Z,80
2022-11-15T21:18:35.248Z,80
2022-11-15T21:22:00.256Z,80
2022-11-15T21:25:25.449Z,81
2022-11-15T21:28:50.689Z,81
2022-11-15T21:32:15.936Z,82
2022-11-15T21:35:41.170Z,81
2022-11-15T21:39:06.441Z,81
2022-11-15T21:42:31.662Z,81
2022-11-15T21:45:56.919Z,80
2022-11-15T21:49:22.148Z,81
2022-11-15T21:52:47.379Z,81
2022-11-15T21:56:12.632Z,81
2022-11-15T21:59:37.852Z,81
2022-11-15T22:03:03.089Z,81
2022-11-15T22:06:28.319Z,81
2022-11-15T22:09:53.578Z,81
2022-11-15T22:13:18.857Z,81
2022-11-15T22:16:44.079Z,81
2022-11-15T22:20:29.799Z,81
2022-11-15T22:23:34.539Z,81
2022-11-15T22:26:59.785Z,82
2022-11-15T22:30:25.031Z,82
2022-11-15T22:33:50.242Z,82
2022-11-15T22:37:22.551Z,82
2022-11-15T22:40:40.728Z,81
2022-11-15T22:44:05.953Z,81
2022-11-15T22:47:31.208Z,82
2022-11-15T22:50:56.398Z,82
2022-11-15T22:54:21.616Z,81
2022-11-15T22:57:46.848Z,81
2022-11-15T23:01:12.072Z,82
2022-11-15T23:04:37.348Z,82
2022-11-15T23:08:02.583Z,83
2022-11-15T23:11:27.813Z,83
2022-11-15T23:14:53.036Z,83
2022-11-15T23:18:18.271Z,83
2022-11-15T23:21:43.530Z,82
2022-11-15T23:25:08.735Z,82
2022-11-15T23:28:34.303Z,83
2022-11-15T23:32:01.847Z,81
2022-11-15T23:35:24.404Z,82
2022-11-15T23:38:49.699Z,82
2022-11-15T23:42:14.941Z,83
2022-11-15T23:45:40.154Z,82
2022-11-15T23:49:05.395Z,82
2022-11-15T23:52:30.619Z,82
2022-11-15T23:55:55.890Z,83
2022-11-15T23:59:21.098Z,83
